sensor_id;sensor_type;location;lat;lon;timestamp;P1;durP1;ratioP1;P2;durP2;ratioP2
25365;SDS011;13315;48.274;-1.900;2023-11-18T00:00:52;5.75;;;5.35;;
25365;SDS011;13315;48.274;-1.900;2023-11-18T00:03:18;4.93;;;4.72;;
25365;SDS011;13315;48.274;-1.900;2023-11-18T00:05:44;4.20;;;4.00;;
25365;SDS011;13315;48.274;-1.900;2023-11-18T00:08:10;4.10;;;3.92;;
25365;SDS011;13315;48.274;-1.900;2023-11-18T00:10:36;5.20;;;4.53;;
25365;SDS011;13315;48.274;-1.900;2023-11-18T00:13:02;6.18;;;4.75;;
25365;SDS011;13315;48.274;-1.900;2023-11-18T00:15:29;4.60;;;4.40;;
25365;SDS011;13315;48.274;-1.900;2023-11-18T00:17:55;4.88;;;4.57;;
25365;SDS011;13315;48.274;-1.900;2023-11-18T00:20:21;5.00;;;4.70;;
25365;SDS011;13315;48.274;-1.900;2023-11-18T00:22:49;5.37;;;5.17;;
25365;SDS011;13315;48.274;-1.900;2023-11-18T00:25:16;5.38;;;5.10;;
25365;SDS011;13315;48.274;-1.900;2023-11-18T00:27:42;4.00;;;3.80;;
25365;SDS011;13315;48.274;-1.900;2023-11-18T00:30:08;4.70;;;4.45;;
25365;SDS011;13315;48.274;-1.900;2023-11-18T00:32:36;5.43;;;5.22;;
25365;SDS011;13315;48.274;-1.900;2023-11-18T00:35:02;6.03;;;4.70;;
25365;SDS011;13315;48.274;-1.900;2023-11-18T00:39:57;5.43;;;5.18;;
25365;SDS011;13315;48.274;-1.900;2023-11-18T00:42:23;5.15;;;4.82;;
25365;SDS011;13315;48.274;-1.900;2023-11-18T00:44:49;5.72;;;5.45;;
25365;SDS011;13315;48.274;-1.900;2023-11-18T00:47:15;4.53;;;4.32;;
25365;SDS011;13315;48.274;-1.900;2023-11-18T00:49:41;4.25;;;4.05;;
25365;SDS011;13315;48.274;-1.900;2023-11-18T00:52:07;6.18;;;5.68;;
25365;SDS011;13315;48.274;-1.900;2023-11-18T00:54:34;11.30;;;4.07;;
25365;SDS011;13315;48.274;-1.900;2023-11-18T00:57:01;5.18;;;4.88;;
25365;SDS011;13315;48.274;-1.900;2023-11-18T00:59:28;4.70;;;4.50;;
25365;SDS011;13315;48.274;-1.900;2023-11-18T01:01:54;5.90;;;4.82;;
25365;SDS011;13315;48.274;-1.900;2023-11-18T01:04:20;5.10;;;4.88;;
25365;SDS011;13315;48.274;-1.900;2023-11-18T01:06:46;4.93;;;4.72;;
25365;SDS011;13315;48.274;-1.900;2023-11-18T01:09:13;4.72;;;4.53;;
25365;SDS011;13315;48.274;-1.900;2023-11-18T01:11:41;6.07;;;5.78;;
25365;SDS011;13315;48.274;-1.900;2023-11-18T01:14:07;4.72;;;4.53;;
25365;SDS011;13315;48.274;-1.900;2023-11-18T01:16:33;5.20;;;4.90;;
25365;SDS011;13315;48.274;-1.900;2023-11-18T01:18:59;5.38;;;5.18;;
25365;SDS011;13315;48.274;-1.900;2023-11-18T01:21:25;5.35;;;5.10;;
25365;SDS011;13315;48.274;-1.900;2023-11-18T01:23:52;5.70;;;5.30;;
25365;SDS011;13315;48.274;-1.900;2023-11-18T01:26:18;4.85;;;4.55;;
25365;SDS011;13315;48.274;-1.900;2023-11-18T01:28:44;10.30;;;5.53;;
25365;SDS011;13315;48.274;-1.900;2023-11-18T01:31:11;5.15;;;4.90;;
25365;SDS011;13315;48.274;-1.900;2023-11-18T01:33:38;6.60;;;6.05;;
25365;SDS011;13315;48.274;-1.900;2023-11-18T01:36:10;5.85;;;5.50;;
25365;SDS011;13315;48.274;-1.900;2023-11-18T01:38:37;6.82;;;6.43;;
25365;SDS011;13315;48.274;-1.900;2023-11-18T01:41:04;6.18;;;5.88;;
25365;SDS011;13315;48.274;-1.900;2023-11-18T01:43:30;5.65;;;5.35;;
25365;SDS011;13315;48.274;-1.900;2023-11-18T01:46:00;4.72;;;4.53;;
25365;SDS011;13315;48.274;-1.900;2023-11-18T01:48:28;5.22;;;4.93;;
25365;SDS011;13315;48.274;-1.900;2023-11-18T01:50:57;6.10;;;5.80;;
25365;SDS011;13315;48.274;-1.900;2023-11-18T01:53:24;4.80;;;4.57;;
25365;SDS011;13315;48.274;-1.900;2023-11-18T01:55:50;4.45;;;4.22;;
25365;SDS011;13315;48.274;-1.900;2023-11-18T01:58:16;4.90;;;4.60;;
25365;SDS011;13315;48.274;-1.900;2023-11-18T02:00:45;4.45;;;4.25;;
25365;SDS011;13315;48.274;-1.900;2023-11-18T02:03:11;4.90;;;4.60;;
25365;SDS011;13315;48.274;-1.900;2023-11-18T02:05:38;5.55;;;5.15;;
25365;SDS011;13315;48.274;-1.900;2023-11-18T02:08:04;6.15;;;5.85;;
25365;SDS011;13315;48.274;-1.900;2023-11-18T02:10:32;5.35;;;5.07;;
25365;SDS011;13315;48.274;-1.900;2023-11-18T02:15:31;4.03;;;3.83;;
25365;SDS011;13315;48.274;-1.900;2023-11-18T02:18:01;3.70;;;3.50;;
25365;SDS011;13315;48.274;-1.900;2023-11-18T02:20:28;4.03;;;3.83;;
25365;SDS011;13315;48.274;-1.900;2023-11-18T02:22:54;3.83;;;3.60;;
25365;SDS011;13315;48.274;-1.900;2023-11-18T02:25:20;4.00;;;3.80;;
25365;SDS011;13315;48.274;-1.900;2023-11-18T02:27:52;5.35;;;5.05;;
25365;SDS011;13315;48.274;-1.900;2023-11-18T02:30:19;5.10;;;4.70;;
25365;SDS011;13315;48.274;-1.900;2023-11-18T02:32:55;3.95;;;3.75;;
25365;SDS011;13315;48.274;-1.900;2023-11-18T02:35:28;6.43;;;6.03;;
25365;SDS011;13315;48.274;-1.900;2023-11-18T02:37:55;4.55;;;4.25;;
25365;SDS011;13315;48.274;-1.900;2023-11-18T02:40:40;6.65;;;4.35;;
25365;SDS011;13315;48.274;-1.900;2023-11-18T02:43:08;5.82;;;5.50;;
25365;SDS011;13315;48.274;-1.900;2023-11-18T02:45:35;4.38;;;4.18;;
25365;SDS011;13315;48.274;-1.900;2023-11-18T02:48:02;4.22;;;4.03;;
25365;SDS011;13315;48.274;-1.900;2023-11-18T02:50:28;5.45;;;5.25;;
25365;SDS011;13315;48.274;-1.900;2023-11-18T02:52:54;7.85;;;4.43;;
25365;SDS011;13315;48.274;-1.900;2023-11-18T02:55:20;3.75;;;3.55;;
25365;SDS011;13315;48.274;-1.900;2023-11-18T02:57:48;3.53;;;3.40;;
25365;SDS011;13315;48.274;-1.900;2023-11-18T03:00:17;3.78;;;3.58;;
25365;SDS011;13315;48.274;-1.900;2023-11-18T03:02:46;4.10;;;3.90;;
25365;SDS011;13315;48.274;-1.900;2023-11-18T03:05:13;4.53;;;4.32;;
25365;SDS011;13315;48.274;-1.900;2023-11-18T03:07:49;4.05;;;3.85;;
25365;SDS011;13315;48.274;-1.900;2023-11-18T03:10:16;4.03;;;3.83;;
25365;SDS011;13315;48.274;-1.900;2023-11-18T03:12:53;3.00;;;2.90;;
25365;SDS011;13315;48.274;-1.900;2023-11-18T03:15:20;3.40;;;3.30;;
25365;SDS011;13315;48.274;-1.900;2023-11-18T03:17:47;4.32;;;4.13;;
25365;SDS011;13315;48.274;-1.900;2023-11-18T03:20:15;4.97;;;4.78;;
25365;SDS011;13315;48.274;-1.900;2023-11-18T03:22:44;4.72;;;4.43;;
25365;SDS011;13315;48.274;-1.900;2023-11-18T03:25:10;3.92;;;3.75;;
25365;SDS011;13315;48.274;-1.900;2023-11-18T03:27:37;4.32;;;4.13;;
25365;SDS011;13315;48.274;-1.900;2023-11-18T03:30:04;6.05;;;5.75;;
25365;SDS011;13315;48.274;-1.900;2023-11-18T03:32:31;4.85;;;4.65;;
25365;SDS011;13315;48.274;-1.900;2023-11-18T03:34:57;6.25;;;5.95;;
25365;SDS011;13315;48.274;-1.900;2023-11-18T03:39:52;4.15;;;3.95;;
25365;SDS011;13315;48.274;-1.900;2023-11-18T03:42:18;3.63;;;3.53;;
25365;SDS011;13315;48.274;-1.900;2023-11-18T03:44:44;3.72;;;3.60;;
25365;SDS011;13315;48.274;-1.900;2023-11-18T03:47:13;4.43;;;4.13;;
25365;SDS011;13315;48.274;-1.900;2023-11-18T03:49:39;2.92;;;2.83;;
25365;SDS011;13315;48.274;-1.900;2023-11-18T03:52:05;5.85;;;5.55;;
25365;SDS011;13315;48.274;-1.900;2023-11-18T03:54:31;6.18;;;5.78;;
25365;SDS011;13315;48.274;-1.900;2023-11-18T03:56:57;5.00;;;4.80;;
25365;SDS011;13315;48.274;-1.900;2023-11-18T03:59:24;5.25;;;5.03;;
25365;SDS011;13315;48.274;-1.900;2023-11-18T04:01:50;5.40;;;5.15;;
25365;SDS011;13315;48.274;-1.900;2023-11-18T04:04:17;7.72;;;4.10;;
25365;SDS011;13315;48.274;-1.900;2023-11-18T04:06:43;5.95;;;5.65;;
25365;SDS011;13315;48.274;-1.900;2023-11-18T04:09:11;5.43;;;5.13;;
25365;SDS011;13315;48.274;-1.900;2023-11-18T04:11:38;4.68;;;4.47;;
25365;SDS011;13315;48.274;-1.900;2023-11-18T04:14:04;4.78;;;4.57;;
25365;SDS011;13315;48.274;-1.900;2023-11-18T04:16:30;3.80;;;3.67;;
25365;SDS011;13315;48.274;-1.900;2023-11-18T04:18:56;4.68;;;4.47;;
25365;SDS011;13315;48.274;-1.900;2023-11-18T04:21:22;6.55;;;6.25;;
25365;SDS011;13315;48.274;-1.900;2023-11-18T04:23:48;5.03;;;4.72;;
25365;SDS011;13315;48.274;-1.900;2023-11-18T04:26:14;4.30;;;4.10;;
25365;SDS011;13315;48.274;-1.900;2023-11-18T04:28:41;7.45;;;6.82;;
25365;SDS011;13315;48.274;-1.900;2023-11-18T04:31:07;12.60;;;6.53;;
25365;SDS011;13315;48.274;-1.900;2023-11-18T04:33:33;5.72;;;5.45;;
25365;SDS011;13315;48.274;-1.900;2023-11-18T04:35:59;5.07;;;4.88;;
25365;SDS011;13315;48.274;-1.900;2023-11-18T04:38:25;4.20;;;4.00;;
25365;SDS011;13315;48.274;-1.900;2023-11-18T04:40:54;5.43;;;5.13;;
25365;SDS011;13315;48.274;-1.900;2023-11-18T04:43:21;5.45;;;5.10;;
25365;SDS011;13315;48.274;-1.900;2023-11-18T04:45:47;5.43;;;5.22;;
25365;SDS011;13315;48.274;-1.900;2023-11-18T04:48:13;5.63;;;5.35;;
25365;SDS011;13315;48.274;-1.900;2023-11-18T04:50:41;5.00;;;4.80;;
25365;SDS011;13315;48.274;-1.900;2023-11-18T04:53:07;5.55;;;5.22;;
25365;SDS011;13315;48.274;-1.900;2023-11-18T04:55:35;6.80;;;6.50;;
25365;SDS011;13315;48.274;-1.900;2023-11-18T04:58:01;7.15;;;6.85;;
25365;SDS011;13315;48.274;-1.900;2023-11-18T05:00:27;5.20;;;4.97;;
25365;SDS011;13315;48.274;-1.900;2023-11-18T05:02:54;4.30;;;4.10;;
25365;SDS011;13315;48.274;-1.900;2023-11-18T05:05:20;4.88;;;4.68;;
25365;SDS011;13315;48.274;-1.900;2023-11-18T05:07:47;4.10;;;3.90;;
25365;SDS011;13315;48.274;-1.900;2023-11-18T05:10:13;4.55;;;4.35;;
25365;SDS011;13315;48.274;-1.900;2023-11-18T05:12:39;4.72;;;4.53;;
25365;SDS011;13315;48.274;-1.900;2023-11-18T05:15:08;4.80;;;4.40;;
25365;SDS011;13315;48.274;-1.900;2023-11-18T05:17:35;4.60;;;4.20;;
25365;SDS011;13315;48.274;-1.900;2023-11-18T05:20:02;4.13;;;3.83;;
25365;SDS011;13315;48.274;-1.900;2023-11-18T05:22:29;3.30;;;3.20;;
25365;SDS011;13315;48.274;-1.900;2023-11-18T05:24:56;3.75;;;3.60;;
25365;SDS011;13315;48.274;-1.900;2023-11-18T05:27:22;5.53;;;5.03;;
25365;SDS011;13315;48.274;-1.900;2023-11-18T05:29:48;4.43;;;4.22;;
25365;SDS011;13315;48.274;-1.900;2023-11-18T05:32:19;6.22;;;5.93;;
25365;SDS011;13315;48.274;-1.900;2023-11-18T05:34:46;6.13;;;5.82;;
25365;SDS011;13315;48.274;-1.900;2023-11-18T05:37:12;4.55;;;4.35;;
25365;SDS011;13315;48.274;-1.900;2023-11-18T05:39:38;6.18;;;5.88;;
25365;SDS011;13315;48.274;-1.900;2023-11-18T05:42:09;5.70;;;5.43;;
25365;SDS011;13315;48.274;-1.900;2023-11-18T05:44:36;6.57;;;6.18;;
25365;SDS011;13315;48.274;-1.900;2023-11-18T05:47:04;6.22;;;5.93;;
25365;SDS011;13315;48.274;-1.900;2023-11-18T05:49:30;8.32;;;7.30;;
25365;SDS011;13315;48.274;-1.900;2023-11-18T05:51:57;6.60;;;6.30;;
25365;SDS011;13315;48.274;-1.900;2023-11-18T05:54:23;6.00;;;5.72;;
25365;SDS011;13315;48.274;-1.900;2023-11-18T05:56:49;7.25;;;6.85;;
25365;SDS011;13315;48.274;-1.900;2023-11-18T05:59:15;7.40;;;7.05;;
25365;SDS011;13315;48.274;-1.900;2023-11-18T06:01:41;7.18;;;6.88;;
25365;SDS011;13315;48.274;-1.900;2023-11-18T06:04:07;7.07;;;6.78;;
25365;SDS011;13315;48.274;-1.900;2023-11-18T06:06:33;7.65;;;7.25;;
25365;SDS011;13315;48.274;-1.900;2023-11-18T06:09:02;9.32;;;8.90;;
25365;SDS011;13315;48.274;-1.900;2023-11-18T06:11:34;6.32;;;6.03;;
25365;SDS011;13315;48.274;-1.900;2023-11-18T06:14:00;6.60;;;6.30;;
25365;SDS011;13315;48.274;-1.900;2023-11-18T06:16:26;6.30;;;6.00;;
25365;SDS011;13315;48.274;-1.900;2023-11-18T06:18:53;6.15;;;5.85;;
25365;SDS011;13315;48.274;-1.900;2023-11-18T06:21:20;7.65;;;7.25;;
25365;SDS011;13315;48.274;-1.900;2023-11-18T06:23:49;4.95;;;4.75;;
25365;SDS011;13315;48.274;-1.900;2023-11-18T06:26:16;5.18;;;4.88;;
25365;SDS011;13315;48.274;-1.900;2023-11-18T06:28:43;5.78;;;5.40;;
25365;SDS011;13315;48.274;-1.900;2023-11-18T06:31:10;6.05;;;5.65;;
25365;SDS011;13315;48.274;-1.900;2023-11-18T06:33:43;6.25;;;5.95;;
25365;SDS011;13315;48.274;-1.900;2023-11-18T06:36:18;6.30;;;5.82;;
25365;SDS011;13315;48.274;-1.900;2023-11-18T06:38:49;5.95;;;5.68;;
25365;SDS011;13315;48.274;-1.900;2023-11-18T06:41:16;6.32;;;6.03;;
25365;SDS011;13315;48.274;-1.900;2023-11-18T06:43:46;7.15;;;6.85;;
25365;SDS011;13315;48.274;-1.900;2023-11-18T06:46:21;4.93;;;4.72;;
25365;SDS011;13315;48.274;-1.900;2023-11-18T06:48:50;5.40;;;5.10;;
25365;SDS011;13315;48.274;-1.900;2023-11-18T06:51:23;8.57;;;6.55;;
25365;SDS011;13315;48.274;-1.900;2023-11-18T06:53:52;6.20;;;5.82;;
25365;SDS011;13315;48.274;-1.900;2023-11-18T06:56:20;5.68;;;5.47;;
25365;SDS011;13315;48.274;-1.900;2023-11-18T06:58:46;6.55;;;6.25;;
25365;SDS011;13315;48.274;-1.900;2023-11-18T07:01:13;6.28;;;5.97;;
25365;SDS011;13315;48.274;-1.900;2023-11-18T07:03:43;4.80;;;4.60;;
25365;SDS011;13315;48.274;-1.900;2023-11-18T07:06:09;4.60;;;4.40;;
25365;SDS011;13315;48.274;-1.900;2023-11-18T07:08:35;4.80;;;4.60;;
25365;SDS011;13315;48.274;-1.900;2023-11-18T07:11:02;4.30;;;4.10;;
25365;SDS011;13315;48.274;-1.900;2023-11-18T07:13:28;6.82;;;6.07;;
25365;SDS011;13315;48.274;-1.900;2023-11-18T07:15:54;6.00;;;5.70;;
25365;SDS011;13315;48.274;-1.900;2023-11-18T07:18:25;5.28;;;5.07;;
25365;SDS011;13315;48.274;-1.900;2023-11-18T07:20:51;5.40;;;5.18;;
25365;SDS011;13315;48.274;-1.900;2023-11-18T07:23:18;6.72;;;6.13;;
25365;SDS011;13315;48.274;-1.900;2023-11-18T07:25:44;5.32;;;5.13;;
25365;SDS011;13315;48.274;-1.900;2023-11-18T07:28:13;4.32;;;4.13;;
25365;SDS011;13315;48.274;-1.900;2023-11-18T07:30:45;6.63;;;6.32;;
25365;SDS011;13315;48.274;-1.900;2023-11-18T07:33:15;6.68;;;6.38;;
25365;SDS011;13315;48.274;-1.900;2023-11-18T07:35:42;7.13;;;6.72;;
25365;SDS011;13315;48.274;-1.900;2023-11-18T07:38:08;7.65;;;7.25;;
25365;SDS011;13315;48.274;-1.900;2023-11-18T07:40:35;7.15;;;6.82;;
25365;SDS011;13315;48.274;-1.900;2023-11-18T07:43:02;6.85;;;6.55;;
25365;SDS011;13315;48.274;-1.900;2023-11-18T07:45:34;7.25;;;6.85;;
25365;SDS011;13315;48.274;-1.900;2023-11-18T07:48:03;5.93;;;5.63;;
25365;SDS011;13315;48.274;-1.900;2023-11-18T07:50:32;6.32;;;6.03;;
25365;SDS011;13315;48.274;-1.900;2023-11-18T07:52:58;7.40;;;7.00;;
25365;SDS011;13315;48.274;-1.900;2023-11-18T07:55:24;7.43;;;6.93;;
25365;SDS011;13315;48.274;-1.900;2023-11-18T07:57:50;5.65;;;5.30;;
25365;SDS011;13315;48.274;-1.900;2023-11-18T08:00:17;6.15;;;5.85;;
25365;SDS011;13315;48.274;-1.900;2023-11-18T08:02:43;4.00;;;3.80;;
25365;SDS011;13315;48.274;-1.900;2023-11-18T08:05:09;7.30;;;4.82;;
25365;SDS011;13315;48.274;-1.900;2023-11-18T08:07:40;6.78;;;6.47;;
25365;SDS011;13315;48.274;-1.900;2023-11-18T08:10:08;4.80;;;4.60;;
25365;SDS011;13315;48.274;-1.900;2023-11-18T08:12:38;5.65;;;5.45;;
25365;SDS011;13315;48.274;-1.900;2023-11-18T08:15:08;4.65;;;4.45;;
25365;SDS011;13315;48.274;-1.900;2023-11-18T08:17:34;4.88;;;4.68;;
25365;SDS011;13315;48.274;-1.900;2023-11-18T08:20:00;4.20;;;3.63;;
25365;SDS011;13315;48.274;-1.900;2023-11-18T08:22:32;4.13;;;3.92;;
25365;SDS011;13315;48.274;-1.900;2023-11-18T08:24:58;4.13;;;3.92;;
25365;SDS011;13315;48.274;-1.900;2023-11-18T08:27:24;4.53;;;4.22;;
25365;SDS011;13315;48.274;-1.900;2023-11-18T08:29:50;3.35;;;3.15;;
25365;SDS011;13315;48.274;-1.900;2023-11-18T08:32:16;4.03;;;3.70;;
25365;SDS011;13315;48.274;-1.900;2023-11-18T08:34:42;4.47;;;4.28;;
25365;SDS011;13315;48.274;-1.900;2023-11-18T08:37:09;4.50;;;4.30;;
25365;SDS011;13315;48.274;-1.900;2023-11-18T08:39:35;3.90;;;3.70;;
25365;SDS011;13315;48.274;-1.900;2023-11-18T08:42:01;4.43;;;4.22;;
25365;SDS011;13315;48.274;-1.900;2023-11-18T08:44:27;6.30;;;4.30;;
25365;SDS011;13315;48.274;-1.900;2023-11-18T08:46:53;4.50;;;4.30;;
25365;SDS011;13315;48.274;-1.900;2023-11-18T08:49:19;4.53;;;4.28;;
25365;SDS011;13315;48.274;-1.900;2023-11-18T08:51:48;4.28;;;4.07;;
25365;SDS011;13315;48.274;-1.900;2023-11-18T08:54:20;4.63;;;4.30;;
25365;SDS011;13315;48.274;-1.900;2023-11-18T08:57:13;5.07;;;4.68;;
25365;SDS011;13315;48.274;-1.900;2023-11-18T08:59:50;6.03;;;5.60;;
25365;SDS011;13315;48.274;-1.900;2023-11-18T09:02:19;4.22;;;4.03;;
25365;SDS011;13315;48.274;-1.900;2023-11-18T09:04:49;4.65;;;4.45;;
25365;SDS011;13315;48.274;-1.900;2023-11-18T09:07:15;4.63;;;4.20;;
25365;SDS011;13315;48.274;-1.900;2023-11-18T09:09:43;4.50;;;4.30;;
25365;SDS011;13315;48.274;-1.900;2023-11-18T09:12:11;4.85;;;4.65;;
25365;SDS011;13315;48.274;-1.900;2023-11-18T09:14:40;5.35;;;5.05;;
25365;SDS011;13315;48.274;-1.900;2023-11-18T09:17:07;5.22;;;4.30;;
25365;SDS011;13315;48.274;-1.900;2023-11-18T09:19:34;4.28;;;4.07;;
25365;SDS011;13315;48.274;-1.900;2023-11-18T09:22:00;5.60;;;4.10;;
25365;SDS011;13315;48.274;-1.900;2023-11-18T09:24:26;4.47;;;4.28;;
25365;SDS011;13315;48.274;-1.900;2023-11-18T09:26:52;5.18;;;4.93;;
25365;SDS011;13315;48.274;-1.900;2023-11-18T09:29:20;4.68;;;4.38;;
25365;SDS011;13315;48.274;-1.900;2023-11-18T09:31:49;3.83;;;3.63;;
25365;SDS011;13315;48.274;-1.900;2023-11-18T09:34:17;9.55;;;5.95;;
25365;SDS011;13315;48.274;-1.900;2023-11-18T09:36:48;4.22;;;3.90;;
25365;SDS011;13315;48.274;-1.900;2023-11-18T09:39:14;4.10;;;3.80;;
25365;SDS011;13315;48.274;-1.900;2023-11-18T09:41:54;5.20;;;4.80;;
25365;SDS011;13315;48.274;-1.900;2023-11-18T09:44:21;4.50;;;3.85;;
25365;SDS011;13315;48.274;-1.900;2023-11-18T09:46:48;5.25;;;3.10;;
25365;SDS011;13315;48.274;-1.900;2023-11-18T09:49:26;2.53;;;2.42;;
25365;SDS011;13315;48.274;-1.900;2023-11-18T09:51:58;2.08;;;1.98;;
25365;SDS011;13315;48.274;-1.900;2023-11-18T09:54:44;2.85;;;2.65;;
25365;SDS011;13315;48.274;-1.900;2023-11-18T10:00:15;2.70;;;2.55;;
25365;SDS011;13315;48.274;-1.900;2023-11-18T10:02:49;3.20;;;3.10;;
25365;SDS011;13315;48.274;-1.900;2023-11-18T10:05:16;4.43;;;3.42;;
25365;SDS011;13315;48.274;-1.900;2023-11-18T10:07:45;7.35;;;2.55;;
25365;SDS011;13315;48.274;-1.900;2023-11-18T10:10:15;2.65;;;2.53;;
25365;SDS011;13315;48.274;-1.900;2023-11-18T10:12:45;2.53;;;2.33;;
25365;SDS011;13315;48.274;-1.900;2023-11-18T10:15:12;3.70;;;3.45;;
25365;SDS011;13315;48.274;-1.900;2023-11-18T10:17:43;4.23;;;3.93;;
25365;SDS011;13315;48.274;-1.900;2023-11-18T10:28:32;3.70;;;3.30;;
25365;SDS011;13315;48.274;-1.900;2023-11-18T10:31:03;4.63;;;2.47;;
25365;SDS011;13315;48.274;-1.900;2023-11-18T10:33:34;4.75;;;3.55;;
25365;SDS011;13315;48.274;-1.900;2023-11-18T10:36:01;3.17;;;2.17;;
25365;SDS011;13315;48.274;-1.900;2023-11-18T10:38:33;2.72;;;2.53;;
25365;SDS011;13315;48.274;-1.900;2023-11-18T10:41:12;2.70;;;2.50;;
25365;SDS011;13315;48.274;-1.900;2023-11-18T10:43:38;2.60;;;2.50;;
25365;SDS011;13315;48.274;-1.900;2023-11-18T10:46:10;2.40;;;2.20;;
25365;SDS011;13315;48.274;-1.900;2023-11-18T10:48:46;3.55;;;2.67;;
25365;SDS011;13315;48.274;-1.900;2023-11-18T10:51:17;2.38;;;2.25;;
25365;SDS011;13315;48.274;-1.900;2023-11-18T10:53:52;10.48;;;3.70;;
25365;SDS011;13315;48.274;-1.900;2023-11-18T10:56:21;5.65;;;3.10;;
25365;SDS011;13315;48.274;-1.900;2023-11-18T10:58:57;1.80;;;1.73;;
25365;SDS011;13315;48.274;-1.900;2023-11-18T11:01:27;1.70;;;1.60;;
25365;SDS011;13315;48.274;-1.900;2023-11-18T11:03:53;3.60;;;2.58;;
25365;SDS011;13315;48.274;-1.900;2023-11-18T11:06:23;2.80;;;2.67;;
25365;SDS011;13315;48.274;-1.900;2023-11-18T11:08:50;3.55;;;3.25;;
25365;SDS011;13315;48.274;-1.900;2023-11-18T11:11:18;5.20;;;2.10;;
25365;SDS011;13315;48.274;-1.900;2023-11-18T11:13:49;3.00;;;2.83;;
25365;SDS011;13315;48.274;-1.900;2023-11-18T11:16:19;4.28;;;2.15;;
25365;SDS011;13315;48.274;-1.900;2023-11-18T11:18:50;3.05;;;2.85;;
25365;SDS011;13315;48.274;-1.900;2023-11-18T11:21:28;14.63;;;4.03;;
25365;SDS011;13315;48.274;-1.900;2023-11-18T11:24:00;4.13;;;2.30;;
25365;SDS011;13315;48.274;-1.900;2023-11-18T11:27:04;2.47;;;2.20;;
25365;SDS011;13315;48.274;-1.900;2023-11-18T11:32:42;2.65;;;2.42;;
25365;SDS011;13315;48.274;-1.900;2023-11-18T11:35:02;2.97;;;2.78;;
25365;SDS011;13315;48.274;-1.900;2023-11-18T11:37:32;2.80;;;2.70;;
25365;SDS011;13315;48.274;-1.900;2023-11-18T11:40:02;9.10;;;3.30;;
25365;SDS011;13315;48.274;-1.900;2023-11-18T11:42:35;3.28;;;2.97;;
25365;SDS011;13315;48.274;-1.900;2023-11-18T11:45:01;3.22;;;3.03;;
25365;SDS011;13315;48.274;-1.900;2023-11-18T11:47:28;2.28;;;2.17;;
25365;SDS011;13315;48.274;-1.900;2023-11-18T11:50:10;3.30;;;3.10;;
25365;SDS011;13315;48.274;-1.900;2023-11-18T11:52:44;4.45;;;3.30;;
25365;SDS011;13315;48.274;-1.900;2023-11-18T11:55:15;10.68;;;3.15;;
25365;SDS011;13315;48.274;-1.900;2023-11-18T11:57:50;2.65;;;2.30;;
25365;SDS011;13315;48.274;-1.900;2023-11-18T12:00:18;3.67;;;3.38;;
25365;SDS011;13315;48.274;-1.900;2023-11-18T12:02:50;6.57;;;3.20;;
25365;SDS011;13315;48.274;-1.900;2023-11-18T12:05:19;2.60;;;2.50;;
25365;SDS011;13315;48.274;-1.900;2023-11-18T12:07:51;10.35;;;3.53;;
25365;SDS011;13315;48.274;-1.900;2023-11-18T12:10:20;6.05;;;2.65;;
25365;SDS011;13315;48.274;-1.900;2023-11-18T12:12:46;1.67;;;1.67;;
25365;SDS011;13315;48.274;-1.900;2023-11-18T12:15:13;2.15;;;2.00;;
25365;SDS011;13315;48.274;-1.900;2023-11-18T12:23:07;2.38;;;2.28;;
25365;SDS011;13315;48.274;-1.900;2023-11-18T12:25:42;5.10;;;2.50;;
25365;SDS011;13315;48.274;-1.900;2023-11-18T12:28:08;2.78;;;2.67;;
25365;SDS011;13315;48.274;-1.900;2023-11-18T12:33:03;3.40;;;3.10;;
25365;SDS011;13315;48.274;-1.900;2023-11-18T12:41:28;3.13;;;2.92;;
25365;SDS011;13315;48.274;-1.900;2023-11-18T12:49:07;6.30;;;2.83;;
25365;SDS011;13315;48.274;-1.900;2023-11-18T12:51:40;2.70;;;2.58;;
25365;SDS011;13315;48.274;-1.900;2023-11-18T12:54:08;2.67;;;2.58;;
25365;SDS011;13315;48.274;-1.900;2023-11-18T12:56:37;2.40;;;2.30;;
25365;SDS011;13315;48.274;-1.900;2023-11-18T12:59:03;5.32;;;2.85;;
25365;SDS011;13315;48.274;-1.900;2023-11-18T13:01:32;7.82;;;4.25;;
25365;SDS011;13315;48.274;-1.900;2023-11-18T13:04:02;2.85;;;2.75;;
25365;SDS011;13315;48.274;-1.900;2023-11-18T13:06:28;2.97;;;2.85;;
25365;SDS011;13315;48.274;-1.900;2023-11-18T13:08:54;3.13;;;3.03;;
25365;SDS011;13315;48.274;-1.900;2023-11-18T13:11:24;3.00;;;2.72;;
25365;SDS011;13315;48.274;-1.900;2023-11-18T13:13:51;7.90;;;2.70;;
25365;SDS011;13315;48.274;-1.900;2023-11-18T13:16:18;3.28;;;2.97;;
25365;SDS011;13315;48.274;-1.900;2023-11-18T13:18:45;9.45;;;3.80;;
25365;SDS011;13315;48.274;-1.900;2023-11-18T13:21:15;3.05;;;2.65;;
25365;SDS011;13315;48.274;-1.900;2023-11-18T13:23:44;2.80;;;2.70;;
25365;SDS011;13315;48.274;-1.900;2023-11-18T13:26:12;33.28;;;2.40;;
25365;SDS011;13315;48.274;-1.900;2023-11-18T13:28:38;2.80;;;2.70;;
25365;SDS011;13315;48.274;-1.900;2023-11-18T13:31:05;4.40;;;2.63;;
25365;SDS011;13315;48.274;-1.900;2023-11-18T13:33:38;3.05;;;2.95;;
25365;SDS011;13315;48.274;-1.900;2023-11-18T13:36:05;5.32;;;2.15;;
25365;SDS011;13315;48.274;-1.900;2023-11-18T13:38:35;2.80;;;2.70;;
25365;SDS011;13315;48.274;-1.900;2023-11-18T13:41:02;2.50;;;2.40;;
25365;SDS011;13315;48.274;-1.900;2023-11-18T13:43:49;2.50;;;2.40;;
25365;SDS011;13315;48.274;-1.900;2023-11-18T13:46:17;2.20;;;2.10;;
25365;SDS011;13315;48.274;-1.900;2023-11-18T13:48:47;2.85;;;2.75;;
25365;SDS011;13315;48.274;-1.900;2023-11-18T13:51:14;2.40;;;2.30;;
25365;SDS011;13315;48.274;-1.900;2023-11-18T13:53:41;2.20;;;2.10;;
25365;SDS011;13315;48.274;-1.900;2023-11-18T13:56:11;3.00;;;2.90;;
25365;SDS011;13315;48.274;-1.900;2023-11-18T13:58:37;3.55;;;3.22;;
25365;SDS011;13315;48.274;-1.900;2023-11-18T14:01:07;3.10;;;2.58;;
25365;SDS011;13315;48.274;-1.900;2023-11-18T14:03:36;2.60;;;2.50;;
25365;SDS011;13315;48.274;-1.900;2023-11-18T14:06:05;2.60;;;2.50;;
25365;SDS011;13315;48.274;-1.900;2023-11-18T14:08:32;3.60;;;3.40;;
25365;SDS011;13315;48.274;-1.900;2023-11-18T14:11:00;3.70;;;3.50;;
25365;SDS011;13315;48.274;-1.900;2023-11-18T14:13:26;3.78;;;3.47;;
25365;SDS011;13315;48.274;-1.900;2023-11-18T14:15:58;2.65;;;2.55;;
25365;SDS011;13315;48.274;-1.900;2023-11-18T14:18:25;2.78;;;2.67;;
25365;SDS011;13315;48.274;-1.900;2023-11-18T14:20:51;2.83;;;2.72;;
25365;SDS011;13315;48.274;-1.900;2023-11-18T14:23:17;2.40;;;2.30;;
25365;SDS011;13315;48.274;-1.900;2023-11-18T14:25:44;2.80;;;2.70;;
25365;SDS011;13315;48.274;-1.900;2023-11-18T14:28:10;2.10;;;2.00;;
25365;SDS011;13315;48.274;-1.900;2023-11-18T14:30:38;3.47;;;2.58;;
25365;SDS011;13315;48.274;-1.900;2023-11-18T14:33:05;2.30;;;2.20;;
25365;SDS011;13315;48.274;-1.900;2023-11-18T14:35:32;2.25;;;2.15;;
25365;SDS011;13315;48.274;-1.900;2023-11-18T14:37:59;2.40;;;2.30;;
25365;SDS011;13315;48.274;-1.900;2023-11-18T14:40:26;2.50;;;2.40;;
25365;SDS011;13315;48.274;-1.900;2023-11-18T14:42:53;2.47;;;2.30;;
25365;SDS011;13315;48.274;-1.900;2023-11-18T14:45:19;2.40;;;2.30;;
25365;SDS011;13315;48.274;-1.900;2023-11-18T14:47:45;2.72;;;2.63;;
25365;SDS011;13315;48.274;-1.900;2023-11-18T14:50:18;2.60;;;2.50;;
25365;SDS011;13315;48.274;-1.900;2023-11-18T14:52:45;1.88;;;1.88;;
25365;SDS011;13315;48.274;-1.900;2023-11-18T14:55:11;2.25;;;2.15;;
25365;SDS011;13315;48.274;-1.900;2023-11-18T14:57:41;2.40;;;2.20;;
25365;SDS011;13315;48.274;-1.900;2023-11-18T15:00:09;2.50;;;2.40;;
25365;SDS011;13315;48.274;-1.900;2023-11-18T15:02:44;2.00;;;1.90;;
25365;SDS011;13315;48.274;-1.900;2023-11-18T15:05:11;1.60;;;1.60;;
25365;SDS011;13315;48.274;-1.900;2023-11-18T15:07:37;1.90;;;1.80;;
25365;SDS011;13315;48.274;-1.900;2023-11-18T15:10:04;2.60;;;2.50;;
25365;SDS011;13315;48.274;-1.900;2023-11-18T15:12:31;2.55;;;2.45;;
25365;SDS011;13315;48.274;-1.900;2023-11-18T15:14:57;2.42;;;2.33;;
25365;SDS011;13315;48.274;-1.900;2023-11-18T15:17:25;2.38;;;2.28;;
25365;SDS011;13315;48.274;-1.900;2023-11-18T15:19:51;1.95;;;1.85;;